sensor_id;sensor_type;location;lat;lon;timestamp;P1;durP1;ratioP1;P2;durP2;ratioP2
32196;SDS011;18697;42.770;23.400;2024-03-06T00:02:05;81.53;;;39.50;;
32196;SDS011;18697;42.770;23.400;2024-03-06T00:04:32;63.78;;;29.20;;
32196;SDS011;18697;42.770;23.400;2024-03-06T00:06:58;61.17;;;29.58;;
32196;SDS011;18697;42.770;23.400;2024-03-06T00:09:24;46.40;;;24.85;;
32196;SDS011;18697;42.770;23.400;2024-03-06T00:11:52;34.75;;;20.27;;
32196;SDS011;18697;42.770;23.400;2024-03-06T00:14:18;35.22;;;18.45;;
32196;SDS011;18697;42.770;23.400;2024-03-06T00:16:43;33.28;;;17.52;;
32196;SDS011;18697;42.770;23.400;2024-03-06T00:19:09;34.50;;;17.60;;
32196;SDS011;18697;42.770;23.400;2024-03-06T00:21:35;29.67;;;18.38;;
32196;SDS011;18697;42.770;23.400;2024-03-06T00:24:03;32.05;;;18.17;;
32196;SDS011;18697;42.770;23.400;2024-03-06T00:26:29;30.00;;;17.65;;
32196;SDS011;18697;42.770;23.400;2024-03-06T00:28:54;28.10;;;16.67;;
32196;SDS011;18697;42.770;23.400;2024-03-06T00:31:20;26.95;;;16.98;;
32196;SDS011;18697;42.770;23.400;2024-03-06T00:33:45;26.17;;;16.00;;
32196;SDS011;18697;42.770;23.400;2024-03-06T00:36:11;29.30;;;16.90;;
32196;SDS011;18697;42.770;23.400;2024-03-06T00:38:36;29.48;;;17.33;;
32196;SDS011;18697;42.770;23.400;2024-03-06T00:41:02;37.28;;;19.90;;
32196;SDS011;18697;42.770;23.400;2024-03-06T00:43:27;37.00;;;18.80;;
32196;SDS011;18697;42.770;23.400;2024-03-06T00:45:52;46.65;;;21.00;;
32196;SDS011;18697;42.770;23.400;2024-03-06T00:48:18;37.72;;;21.08;;
32196;SDS011;18697;42.770;23.400;2024-03-06T00:50:45;34.80;;;17.85;;
32196;SDS011;18697;42.770;23.400;2024-03-06T00:53:10;38.97;;;21.60;;
32196;SDS011;18697;42.770;23.400;2024-03-06T00:55:36;41.80;;;22.38;;
32196;SDS011;18697;42.770;23.400;2024-03-06T00:58:02;37.15;;;21.30;;
32196;SDS011;18697;42.770;23.400;2024-03-06T01:00:27;33.25;;;18.63;;
32196;SDS011;18697;42.770;23.400;2024-03-06T01:02:54;34.13;;;17.58;;
32196;SDS011;18697;42.770;23.400;2024-03-06T01:05:20;36.33;;;18.83;;
32196;SDS011;18697;42.770;23.400;2024-03-06T01:07:45;27.27;;;17.50;;
32196;SDS011;18697;42.770;23.400;2024-03-06T01:10:10;35.00;;;19.02;;
32196;SDS011;18697;42.770;23.400;2024-03-06T01:12:36;32.78;;;18.45;;
32196;SDS011;18697;42.770;23.400;2024-03-06T01:15:01;30.73;;;19.42;;
32196;SDS011;18697;42.770;23.400;2024-03-06T01:17:28;37.63;;;18.38;;
32196;SDS011;18697;42.770;23.400;2024-03-06T01:19:54;36.72;;;18.45;;
32196;SDS011;18697;42.770;23.400;2024-03-06T01:22:19;34.63;;;18.23;;
32196;SDS011;18697;42.770;23.400;2024-03-06T01:24:44;50.35;;;24.65;;
32196;SDS011;18697;42.770;23.400;2024-03-06T01:27:10;38.13;;;21.73;;
32196;SDS011;18697;42.770;23.400;2024-03-06T01:29:35;44.03;;;21.55;;
32196;SDS011;18697;42.770;23.400;2024-03-06T01:32:01;37.63;;;19.63;;
32196;SDS011;18697;42.770;23.400;2024-03-06T01:34:27;39.40;;;19.80;;
32196;SDS011;18697;42.770;23.400;2024-03-06T01:36:52;38.63;;;19.77;;
32196;SDS011;18697;42.770;23.400;2024-03-06T01:39:18;31.73;;;18.20;;
32196;SDS011;18697;42.770;23.400;2024-03-06T01:41:47;33.53;;;18.95;;
32196;SDS011;18697;42.770;23.400;2024-03-06T01:44:13;33.83;;;18.52;;
32196;SDS011;18697;42.770;23.400;2024-03-06T01:46:39;34.85;;;19.05;;
32196;SDS011;18697;42.770;23.400;2024-03-06T01:49:04;37.83;;;21.05;;
32196;SDS011;18697;42.770;23.400;2024-03-06T01:51:31;37.88;;;20.60;;
32196;SDS011;18697;42.770;23.400;2024-03-06T01:53:57;31.27;;;19.45;;
32196;SDS011;18697;42.770;23.400;2024-03-06T01:56:25;37.85;;;19.27;;
32196;SDS011;18697;42.770;23.400;2024-03-06T01:58:51;35.42;;;20.02;;
32196;SDS011;18697;42.770;23.400;2024-03-06T02:01:19;40.35;;;20.85;;
32196;SDS011;18697;42.770;23.400;2024-03-06T02:03:46;41.45;;;21.98;;
32196;SDS011;18697;42.770;23.400;2024-03-06T02:06:13;46.15;;;23.13;;
32196;SDS011;18697;42.770;23.400;2024-03-06T02:08:40;47.67;;;24.80;;
32196;SDS011;18697;42.770;23.400;2024-03-06T02:11:06;53.90;;;27.00;;
32196;SDS011;18697;42.770;23.400;2024-03-06T02:13:32;51.08;;;24.98;;
32196;SDS011;18697;42.770;23.400;2024-03-06T02:15:58;52.53;;;27.17;;
32196;SDS011;18697;42.770;23.400;2024-03-06T02:18:23;50.25;;;25.58;;
32196;SDS011;18697;42.770;23.400;2024-03-06T02:20:49;53.33;;;27.08;;
32196;SDS011;18697;42.770;23.400;2024-03-06T02:23:15;58.65;;;28.40;;
32196;SDS011;18697;42.770;23.400;2024-03-06T02:25:42;55.42;;;28.05;;
32196;SDS011;18697;42.770;23.400;2024-03-06T02:28:08;53.92;;;27.60;;
32196;SDS011;18697;42.770;23.400;2024-03-06T02:30:33;49.30;;;26.85;;
32196;SDS011;18697;42.770;23.400;2024-03-06T02:33:04;52.25;;;26.98;;
32196;SDS011;18697;42.770;23.400;2024-03-06T02:35:32;54.10;;;28.25;;
32196;SDS011;18697;42.770;23.400;2024-03-06T02:38:01;51.13;;;26.30;;
32196;SDS011;18697;42.770;23.400;2024-03-06T02:40:29;52.88;;;26.05;;
32196;SDS011;18697;42.770;23.400;2024-03-06T02:42:55;51.10;;;26.00;;
32196;SDS011;18697;42.770;23.400;2024-03-06T02:45:21;54.25;;;25.33;;
32196;SDS011;18697;42.770;23.400;2024-03-06T02:47:47;44.67;;;24.33;;
32196;SDS011;18697;42.770;23.400;2024-03-06T02:50:12;45.65;;;25.52;;
32196;SDS011;18697;42.770;23.400;2024-03-06T02:52:38;50.72;;;25.85;;
32196;SDS011;18697;42.770;23.400;2024-03-06T02:55:04;47.80;;;25.38;;
32196;SDS011;18697;42.770;23.400;2024-03-06T02:57:30;48.80;;;23.85;;
32196;SDS011;18697;42.770;23.400;2024-03-06T02:59:59;47.63;;;24.50;;
32196;SDS011;18697;42.770;23.400;2024-03-06T03:02:24;47.65;;;24.95;;
32196;SDS011;18697;42.770;23.400;2024-03-06T03:04:50;52.42;;;26.23;;
32196;SDS011;18697;42.770;23.400;2024-03-06T03:07:17;46.10;;;24.40;;
32196;SDS011;18697;42.770;23.400;2024-03-06T03:09:44;41.58;;;23.20;;
32196;SDS011;18697;42.770;23.400;2024-03-06T03:12:10;44.38;;;24.02;;
32196;SDS011;18697;42.770;23.400;2024-03-06T03:14:36;40.97;;;23.73;;
32196;SDS011;18697;42.770;23.400;2024-03-06T03:17:02;67.15;;;33.95;;
32196;SDS011;18697;42.770;23.400;2024-03-06T03:19:28;56.90;;;32.15;;
32196;SDS011;18697;42.770;23.400;2024-03-06T03:21:54;70.70;;;36.53;;
32196;SDS011;18697;42.770;23.400;2024-03-06T03:24:19;52.33;;;27.58;;
32196;SDS011;18697;42.770;23.400;2024-03-06T03:26:46;70.88;;;37.13;;
32196;SDS011;18697;42.770;23.400;2024-03-06T03:29:12;67.32;;;34.00;;
32196;SDS011;18697;42.770;23.400;2024-03-06T03:31:37;58.45;;;28.42;;
32196;SDS011;18697;42.770;23.400;2024-03-06T03:34:03;101.30;;;47.00;;
32196;SDS011;18697;42.770;23.400;2024-03-06T03:36:30;100.32;;;49.80;;
32196;SDS011;18697;42.770;23.400;2024-03-06T03:38:55;65.75;;;34.58;;
32196;SDS011;18697;42.770;23.400;2024-03-06T03:41:20;61.38;;;32.53;;
32196;SDS011;18697;42.770;23.400;2024-03-06T03:43:46;50.28;;;26.67;;
32196;SDS011;18697;42.770;23.400;2024-03-06T03:46:11;41.92;;;23.35;;
32196;SDS011;18697;42.770;23.400;2024-03-06T03:48:36;40.60;;;23.38;;
32196;SDS011;18697;42.770;23.400;2024-03-06T03:51:02;41.08;;;24.80;;
32196;SDS011;18697;42.770;23.400;2024-03-06T03:53:35;40.70;;;23.33;;
32196;SDS011;18697;42.770;23.400;2024-03-06T03:56:00;43.88;;;24.02;;
32196;SDS011;18697;42.770;23.400;2024-03-06T03:58:26;45.30;;;25.27;;
32196;SDS011;18697;42.770;23.400;2024-03-06T04:00:51;57.08;;;26.55;;
32196;SDS011;18697;42.770;23.400;2024-03-06T04:03:20;49.53;;;25.20;;
32196;SDS011;18697;42.770;23.400;2024-03-06T04:05:49;64.65;;;26.83;;
32196;SDS011;18697;42.770;23.400;2024-03-06T04:08:15;52.15;;;26.42;;
32196;SDS011;18697;42.770;23.400;2024-03-06T04:10:44;50.00;;;24.50;;
32196;SDS011;18697;42.770;23.400;2024-03-06T04:13:12;54.83;;;26.42;;
32196;SDS011;18697;42.770;23.400;2024-03-06T04:15:40;52.35;;;24.50;;
32196;SDS011;18697;42.770;23.400;2024-03-06T04:18:05;51.72;;;26.15;;
32196;SDS011;18697;42.770;23.400;2024-03-06T04:20:31;65.68;;;26.10;;
32196;SDS011;18697;42.770;23.400;2024-03-06T04:22:56;56.25;;;28.45;;
32196;SDS011;18697;42.770;23.400;2024-03-06T04:25:22;57.83;;;27.50;;
32196;SDS011;18697;42.770;23.400;2024-03-06T04:27:48;64.45;;;27.55;;
32196;SDS011;18697;42.770;23.400;2024-03-06T04:30:14;62.38;;;27.58;;
32196;SDS011;18697;42.770;23.400;2024-03-06T04:32:39;70.50;;;28.00;;
32196;SDS011;18697;42.770;23.400;2024-03-06T04:35:05;97.60;;;46.22;;
32196;SDS011;18697;42.770;23.400;2024-03-06T04:37:30;72.70;;;36.80;;
32196;SDS011;18697;42.770;23.400;2024-03-06T04:39:58;59.92;;;29.30;;
32196;SDS011;18697;42.770;23.400;2024-03-06T04:42:23;56.53;;;27.42;;
32196;SDS011;18697;42.770;23.400;2024-03-06T04:44:49;66.00;;;26.88;;
32196;SDS011;18697;42.770;23.400;2024-03-06T04:47:14;63.83;;;27.50;;
32196;SDS011;18697;42.770;23.400;2024-03-06T04:49:39;66.30;;;29.45;;
32196;SDS011;18697;42.770;23.400;2024-03-06T04:52:05;72.38;;;29.75;;
32196;SDS011;18697;42.770;23.400;2024-03-06T04:54:30;70.03;;;30.13;;
32196;SDS011;18697;42.770;23.400;2024-03-06T04:56:55;72.70;;;29.60;;
32196;SDS011;18697;42.770;23.400;2024-03-06T04:59:21;66.05;;;29.38;;
32196;SDS011;18697;42.770;23.400;2024-03-06T05:01:46;68.95;;;29.85;;
32196;SDS011;18697;42.770;23.400;2024-03-06T05:04:12;75.57;;;28.55;;
32196;SDS011;18697;42.770;23.400;2024-03-06T05:06:37;70.78;;;29.38;;
32196;SDS011;18697;42.770;23.400;2024-03-06T05:09:03;68.00;;;27.90;;
32196;SDS011;18697;42.770;23.400;2024-03-06T05:11:29;64.88;;;25.85;;
32196;SDS011;18697;42.770;23.400;2024-03-06T05:13:55;57.40;;;27.65;;
32196;SDS011;18697;42.770;23.400;2024-03-06T05:16:22;44.95;;;23.63;;
32196;SDS011;18697;42.770;23.400;2024-03-06T05:18:49;45.55;;;25.25;;
32196;SDS011;18697;42.770;23.400;2024-03-06T05:21:14;48.90;;;27.60;;
32196;SDS011;18697;42.770;23.400;2024-03-06T05:23:40;52.28;;;28.50;;
32196;SDS011;18697;42.770;23.400;2024-03-06T05:26:05;54.38;;;29.05;;
32196;SDS011;18697;42.770;23.400;2024-03-06T05:28:31;72.53;;;39.42;;
32196;SDS011;18697;42.770;23.400;2024-03-06T05:30:56;88.75;;;45.08;;
32196;SDS011;18697;42.770;23.400;2024-03-06T05:33:21;60.35;;;33.25;;
32196;SDS011;18697;42.770;23.400;2024-03-06T05:35:47;61.45;;;32.30;;
32196;SDS011;18697;42.770;23.400;2024-03-06T05:38:12;51.78;;;29.77;;
32196;SDS011;18697;42.770;23.400;2024-03-06T05:40:38;50.80;;;29.10;;
32196;SDS011;18697;42.770;23.400;2024-03-06T05:43:05;50.00;;;28.88;;
32196;SDS011;18697;42.770;23.400;2024-03-06T05:45:30;56.03;;;25.67;;
32196;SDS011;18697;42.770;23.400;2024-03-06T05:47:56;48.80;;;26.95;;
32196;SDS011;18697;42.770;23.400;2024-03-06T05:50:21;44.38;;;23.92;;
32196;SDS011;18697;42.770;23.400;2024-03-06T05:52:47;45.40;;;24.23;;
32196;SDS011;18697;42.770;23.400;2024-03-06T05:55:13;42.20;;;24.15;;
32196;SDS011;18697;42.770;23.400;2024-03-06T05:57:38;43.60;;;24.20;;
32196;SDS011;18697;42.770;23.400;2024-03-06T06:00:03;44.13;;;24.55;;
32196;SDS011;18697;42.770;23.400;2024-03-06T06:02:35;64.05;;;29.95;;
32196;SDS011;18697;42.770;23.400;2024-03-06T06:05:01;49.70;;;26.63;;
32196;SDS011;18697;42.770;23.400;2024-03-06T06:07:26;56.92;;;31.90;;
32196;SDS011;18697;42.770;23.400;2024-03-06T06:09:52;63.05;;;34.22;;
32196;SDS011;18697;42.770;23.400;2024-03-06T06:12:17;59.08;;;30.50;;
32196;SDS011;18697;42.770;23.400;2024-03-06T06:14:43;50.05;;;29.48;;
32196;SDS011;18697;42.770;23.400;2024-03-06T06:17:09;60.00;;;31.90;;
32196;SDS011;18697;42.770;23.400;2024-03-06T06:19:34;81.07;;;40.83;;
32196;SDS011;18697;42.770;23.400;2024-03-06T06:21:59;73.25;;;40.42;;
32196;SDS011;18697;42.770;23.400;2024-03-06T06:24:25;74.82;;;38.67;;
32196;SDS011;18697;42.770;23.400;2024-03-06T06:26:51;70.53;;;35.65;;
32196;SDS011;18697;42.770;23.400;2024-03-06T06:29:17;65.00;;;33.78;;
32196;SDS011;18697;42.770;23.400;2024-03-06T06:31:42;66.65;;;32.40;;
32196;SDS011;18697;42.770;23.400;2024-03-06T06:34:07;64.22;;;30.58;;
32196;SDS011;18697;42.770;23.400;2024-03-06T06:36:33;63.05;;;29.63;;
32196;SDS011;18697;42.770;23.400;2024-03-06T06:38:58;58.17;;;30.30;;
32196;SDS011;18697;42.770;23.400;2024-03-06T06:41:24;76.20;;;37.28;;
32196;SDS011;18697;42.770;23.400;2024-03-06T06:43:50;69.07;;;34.53;;
32196;SDS011;18697;42.770;23.400;2024-03-06T06:46:17;77.78;;;36.95;;
32196;SDS011;18697;42.770;23.400;2024-03-06T06:48:43;80.93;;;39.60;;
32196;SDS011;18697;42.770;23.400;2024-03-06T06:51:09;81.55;;;39.72;;
32196;SDS011;18697;42.770;23.400;2024-03-06T06:53:34;79.88;;;36.67;;
32196;SDS011;18697;42.770;23.400;2024-03-06T06:55:59;78.93;;;36.67;;
32196;SDS011;18697;42.770;23.400;2024-03-06T06:58:25;79.22;;;31.20;;
32196;SDS011;18697;42.770;23.400;2024-03-06T07:00:53;70.15;;;32.80;;
32196;SDS011;18697;42.770;23.400;2024-03-06T07:03:19;77.57;;;34.92;;
32196;SDS011;18697;42.770;23.400;2024-03-06T07:05:46;66.00;;;30.23;;
32196;SDS011;18697;42.770;23.400;2024-03-06T07:08:12;62.17;;;29.38;;
32196;SDS011;18697;42.770;23.400;2024-03-06T07:10:37;49.63;;;25.83;;
32196;SDS011;18697;42.770;23.400;2024-03-06T07:13:02;55.67;;;25.02;;
32196;SDS011;18697;42.770;23.400;2024-03-06T07:15:29;47.08;;;24.60;;
32196;SDS011;18697;42.770;23.400;2024-03-06T07:17:55;52.72;;;26.30;;
32196;SDS011;18697;42.770;23.400;2024-03-06T07:20:20;47.78;;;25.23;;
32196;SDS011;18697;42.770;23.400;2024-03-06T07:22:46;48.78;;;24.35;;
32196;SDS011;18697;42.770;23.400;2024-03-06T07:25:11;51.65;;;25.15;;
32196;SDS011;18697;42.770;23.400;2024-03-06T07:27:37;51.00;;;27.63;;
32196;SDS011;18697;42.770;23.400;2024-03-06T07:30:02;56.38;;;27.00;;
32196;SDS011;18697;42.770;23.400;2024-03-06T07:32:28;58.28;;;27.23;;
32196;SDS011;18697;42.770;23.400;2024-03-06T07:34:53;55.95;;;28.65;;
32196;SDS011;18697;42.770;23.400;2024-03-06T07:37:19;49.80;;;26.75;;
32196;SDS011;18697;42.770;23.400;2024-03-06T07:39:44;51.88;;;27.77;;
32196;SDS011;18697;42.770;23.400;2024-03-06T07:42:10;50.17;;;27.75;;
32196;SDS011;18697;42.770;23.400;2024-03-06T07:44:36;52.53;;;28.58;;
32196;SDS011;18697;42.770;23.400;2024-03-06T07:47:01;62.75;;;31.02;;
32196;SDS011;18697;42.770;23.400;2024-03-06T07:49:28;59.47;;;32.33;;
32196;SDS011;18697;42.770;23.400;2024-03-06T07:51:53;54.42;;;27.13;;
32196;SDS011;18697;42.770;23.400;2024-03-06T07:54:18;50.88;;;27.75;;
32196;SDS011;18697;42.770;23.400;2024-03-06T07:56:44;51.38;;;27.30;;
32196;SDS011;18697;42.770;23.400;2024-03-06T07:59:09;51.25;;;26.45;;
32196;SDS011;18697;42.770;23.400;2024-03-06T08:01:37;52.03;;;26.63;;
32196;SDS011;18697;42.770;23.400;2024-03-06T08:04:03;43.28;;;22.77;;
32196;SDS011;18697;42.770;23.400;2024-03-06T08:06:28;44.17;;;23.23;;
32196;SDS011;18697;42.770;23.400;2024-03-06T08:08:54;39.03;;;20.95;;
32196;SDS011;18697;42.770;23.400;2024-03-06T08:11:20;36.17;;;21.10;;
32196;SDS011;18697;42.770;23.400;2024-03-06T08:13:48;37.80;;;20.10;;
32196;SDS011;18697;42.770;23.400;2024-03-06T08:16:14;33.97;;;19.15;;
32196;SDS011;18697;42.770;23.400;2024-03-06T08:18:39;45.78;;;22.35;;
32196;SDS011;18697;42.770;23.400;2024-03-06T08:21:04;33.50;;;19.15;;
32196;SDS011;18697;42.770;23.400;2024-03-06T08:23:31;35.13;;;19.83;;
32196;SDS011;18697;42.770;23.400;2024-03-06T08:25:57;29.73;;;18.23;;
32196;SDS011;18697;42.770;23.400;2024-03-06T08:30:47;34.47;;;19.48;;
32196;SDS011;18697;42.770;23.400;2024-03-06T08:33:13;37.05;;;19.92;;
32196;SDS011;18697;42.770;23.400;2024-03-06T08:35:39;28.83;;;18.70;;
32196;SDS011;18697;42.770;23.400;2024-03-06T08:38:04;30.30;;;17.85;;
32196;SDS011;18697;42.770;23.400;2024-03-06T08:40:31;28.48;;;16.75;;
32196;SDS011;18697;42.770;23.400;2024-03-06T08:42:57;33.08;;;18.70;;
32196;SDS011;18697;42.770;23.400;2024-03-06T08:45:22;27.60;;;16.60;;
32196;SDS011;18697;42.770;23.400;2024-03-06T08:47:50;29.90;;;17.92;;
32196;SDS011;18697;42.770;23.400;2024-03-06T08:50:18;31.58;;;18.15;;
32196;SDS011;18697;42.770;23.400;2024-03-06T08:52:44;29.30;;;17.45;;
32196;SDS011;18697;42.770;23.400;2024-03-06T08:55:10;31.20;;;17.48;;
32196;SDS011;18697;42.770;23.400;2024-03-06T08:57:36;34.70;;;17.45;;
32196;SDS011;18697;42.770;23.400;2024-03-06T09:00:02;25.85;;;16.75;;
32196;SDS011;18697;42.770;23.400;2024-03-06T09:02:29;29.25;;;16.38;;
32196;SDS011;18697;42.770;23.400;2024-03-06T09:04:55;29.50;;;17.15;;
32196;SDS011;18697;42.770;23.400;2024-03-06T09:07:21;25.90;;;15.98;;
32196;SDS011;18697;42.770;23.400;2024-03-06T09:09:49;28.45;;;14.80;;
32196;SDS011;18697;42.770;23.400;2024-03-06T09:12:18;26.95;;;16.27;;
32196;SDS011;18697;42.770;23.400;2024-03-06T09:14:44;23.00;;;13.50;;
32196;SDS011;18697;42.770;23.400;2024-03-06T09:17:12;21.83;;;13.40;;
32196;SDS011;18697;42.770;23.400;2024-03-06T09:19:41;27.75;;;15.07;;
32196;SDS011;18697;42.770;23.400;2024-03-06T09:22:07;17.98;;;11.90;;
32196;SDS011;18697;42.770;23.400;2024-03-06T09:24:32;21.15;;;13.95;;
32196;SDS011;18697;42.770;23.400;2024-03-06T09:27:00;24.88;;;14.20;;
32196;SDS011;18697;42.770;23.400;2024-03-06T09:29:26;17.95;;;12.07;;
32196;SDS011;18697;42.770;23.400;2024-03-06T09:31:51;23.40;;;13.50;;
32196;SDS011;18697;42.770;23.400;2024-03-06T09:34:17;22.80;;;13.20;;
32196;SDS011;18697;42.770;23.400;2024-03-06T09:36:45;20.92;;;13.80;;
32196;SDS011;18697;42.770;23.400;2024-03-06T09:39:12;22.83;;;13.90;;
32196;SDS011;18697;42.770;23.400;2024-03-06T09:41:44;25.40;;;14.00;;
32196;SDS011;18697;42.770;23.400;2024-03-06T09:44:11;21.85;;;13.30;;
32196;SDS011;18697;42.770;23.400;2024-03-06T09:46:37;22.15;;;13.32;;
32196;SDS011;18697;42.770;23.400;2024-03-06T09:49:02;19.60;;;12.48;;
32196;SDS011;18697;42.770;23.400;2024-03-06T09:51:29;23.67;;;12.43;;
32196;SDS011;18697;42.770;23.400;2024-03-06T09:53:55;22.42;;;13.77;;
32196;SDS011;18697;42.770;23.400;2024-03-06T09:56:21;20.40;;;11.18;;
32196;SDS011;18697;42.770;23.400;2024-03-06T09:58:47;21.48;;;12.13;;
32196;SDS011;18697;42.770;23.400;2024-03-06T10:01:15;19.63;;;13.10;;
32196;SDS011;18697;42.770;23.400;2024-03-06T10:03:42;15.60;;;9.45;;
32196;SDS011;18697;42.770;23.400;2024-03-06T10:06:07;17.95;;;10.50;;
32196;SDS011;18697;42.770;23.400;2024-03-06T10:08:33;15.23;;;10.30;;
32196;SDS011;18697;42.770;23.400;2024-03-06T10:10:59;21.00;;;11.57;;
32196;SDS011;18697;42.770;23.400;2024-03-06T10:13:26;21.42;;;10.95;;
32196;SDS011;18697;42.770;23.400;2024-03-06T10:15:58;18.33;;;10.98;;
32196;SDS011;18697;42.770;23.400;2024-03-06T10:18:29;26.45;;;12.50;;
32196;SDS011;18697;42.770;23.400;2024-03-06T10:20:58;21.20;;;10.73;;
32196;SDS011;18697;42.770;23.400;2024-03-06T10:23:23;17.42;;;10.07;;
32196;SDS011;18697;42.770;23.400;2024-03-06T10:25:50;16.08;;;9.52;;
32196;SDS011;18697;42.770;23.400;2024-03-06T10:28:17;14.30;;;8.43;;
32196;SDS011;18697;42.770;23.400;2024-03-06T10:30:43;14.40;;;8.88;;
32196;SDS011;18697;42.770;23.400;2024-03-06T10:33:10;18.35;;;10.15;;
32196;SDS011;18697;42.770;23.400;2024-03-06T10:35:39;14.80;;;7.25;;
32196;SDS011;18697;42.770;23.400;2024-03-06T10:38:06;15.18;;;8.50;;
32196;SDS011;18697;42.770;23.400;2024-03-06T10:40:36;18.02;;;9.32;;
32196;SDS011;18697;42.770;23.400;2024-03-06T10:43:03;11.15;;;7.22;;
32196;SDS011;18697;42.770;23.400;2024-03-06T10:48:08;13.93;;;7.63;;
32196;SDS011;18697;42.770;23.400;2024-03-06T10:50:40;12.10;;;7.53;;
32196;SDS011;18697;42.770;23.400;2024-03-06T10:53:09;12.30;;;6.95;;
32196;SDS011;18697;42.770;23.400;2024-03-06T10:55:39;10.95;;;6.88;;
32196;SDS011;18697;42.770;23.400;2024-03-06T10:58:06;9.52;;;6.47;;
32196;SDS011;18697;42.770;23.400;2024-03-06T11:00:41;9.48;;;6.40;;
32196;SDS011;18697;42.770;23.400;2024-03-06T11:03:11;10.10;;;6.60;;
32196;SDS011;18697;42.770;23.400;2024-03-06T11:05:43;16.40;;;6.57;;
32196;SDS011;18697;42.770;23.400;2024-03-06T11:08:12;10.82;;;7.63;;
32196;SDS011;18697;42.770;23.400;2024-03-06T11:10:39;11.98;;;7.20;;
32196;SDS011;18697;42.770;23.400;2024-03-06T11:15:51;9.38;;;6.80;;
32196;SDS011;18697;42.770;23.400;2024-03-06T11:23:27;12.32;;;7.60;;
32196;SDS011;18697;42.770;23.400;2024-03-06T11:31:05;13.57;;;7.60;;
32196;SDS011;18697;42.770;23.400;2024-03-06T11:38:57;11.55;;;7.22;;
32196;SDS011;18697;42.770;23.400;2024-03-06T11:41:49;12.68;;;7.43;;
32196;SDS011;18697;42.770;23.400;2024-03-06T11:44:15;14.77;;;7.80;;
32196;SDS011;18697;42.770;23.400;2024-03-06T11:46:48;14.55;;;7.63;;
32196;SDS011;18697;42.770;23.400;2024-03-06T11:49:21;10.27;;;6.47;;
32196;SDS011;18697;42.770;23.400;2024-03-06T11:51:49;13.25;;;6.55;;
32196;SDS011;18697;42.770;23.400;2024-03-06T11:54:16;11.38;;;7.10;;
32196;SDS011;18697;42.770;23.400;2024-03-06T11:56:48;19.30;;;9.88;;
32196;SDS011;18697;42.770;23.400;2024-03-06T11:59:15;14.10;;;7.65;;
32196;SDS011;18697;42.770;23.400;2024-03-06T12:01:41;10.40;;;6.10;;
32196;SDS011;18697;42.770;23.400;2024-03-06T12:04:06;8.02;;;5.93;;
32196;SDS011;18697;42.770;23.400;2024-03-06T12:06:32;8.85;;;5.65;;
32196;SDS011;18697;42.770;23.400;2024-03-06T12:08:58;9.55;;;5.50;;
32196;SDS011;18697;42.770;23.400;2024-03-06T12:11:24;8.40;;;5.65;;
32196;SDS011;18697;42.770;23.400;2024-03-06T12:13:53;16.92;;;5.18;;
32196;SDS011;18697;42.770;23.400;2024-03-06T12:16:19;14.43;;;7.07;;
32196;SDS011;18697;42.770;23.400;2024-03-06T12:18:45;13.25;;;7.03;;
32196;SDS011;18697;42.770;23.400;2024-03-06T12:21:11;12.35;;;5.95;;
32196;SDS011;18697;42.770;23.400;2024-03-06T12:23:38;10.13;;;6.32;;
32196;SDS011;18697;42.770;23.400;2024-03-06T12:26:08;8.43;;;6.20;;
32196;SDS011;18697;42.770;23.400;2024-03-06T12:28:36;9.63;;;6.00;;
32196;SDS011;18697;42.770;23.400;2024-03-06T12:31:02;12.68;;;7.13;;
32196;SDS011;18697;42.770;23.400;2024-03-06T12:33:29;14.00;;;6.90;;
32196;SDS011;18697;42.770;23.400;2024-03-06T12:36:04;10.32;;;7.35;;
32196;SDS011;18697;42.770;23.400;2024-03-06T12:38:31;11.48;;;6.70;;
32196;SDS011;18697;42.770;23.400;2024-03-06T12:40:57;11.52;;;6.05;;
32196;SDS011;18697;42.770;23.400;2024-03-06T12:43:23;9.15;;;5.75;;
32196;SDS011;18697;42.770;23.400;2024-03-06T12:45:49;7.25;;;5.47;;
32196;SDS011;18697;42.770;23.400;2024-03-06T12:48:15;7.95;;;4.55;;
32196;SDS011;18697;42.770;23.400;2024-03-06T12:50:40;5.97;;;4.53;;
32196;SDS011;18697;42.770;23.400;2024-03-06T12:53:07;5.65;;;4.80;;
32196;SDS011;18697;42.770;23.400;2024-03-06T12:55:32;6.85;;;4.55;;
32196;SDS011;18697;42.770;23.400;2024-03-06T12:57:58;7.18;;;4.53;;
32196;SDS011;18697;42.770;23.400;2024-03-06T13:00:23;6.20;;;4.75;;
32196;SDS011;18697;42.770;23.400;2024-03-06T13:02:49;8.05;;;5.40;;
32196;SDS011;18697;42.770;23.400;2024-03-06T13:05:17;12.02;;;6.28;;
32196;SDS011;18697;42.770;23.400;2024-03-06T13:07:44;13.38;;;7.20;;
32196;SDS011;18697;42.770;23.400;2024-03-06T13:10:10;8.63;;;5.72;;
32196;SDS011;18697;42.770;23.400;2024-03-06T13:12:39;10.00;;;6.38;;
32196;SDS011;18697;42.770;23.400;2024-03-06T13:15:05;9.02;;;5.68;;
32196;SDS011;18697;42.770;23.400;2024-03-06T13:17:32;8.80;;;4.88;;
32196;SDS011;18697;42.770;23.400;2024-03-06T13:19:58;10.77;;;5.30;;
32196;SDS011;18697;42.770;23.400;2024-03-06T13:22:23;5.97;;;4.43;;
32196;SDS011;18697;42.770;23.400;2024-03-06T13:24:49;5.65;;;4.47;;
32196;SDS011;18697;42.770;23.400;2024-03-06T13:29:39;8.07;;;4.38;;
32196;SDS011;18697;42.770;23.400;2024-03-06T13:32:06;8.20;;;4.60;;
32196;SDS011;18697;42.770;23.400;2024-03-06T13:34:32;7.15;;;4.40;;
32196;SDS011;18697;42.770;23.400;2024-03-06T13:36:58;8.02;;;4.50;;
32196;SDS011;18697;42.770;23.400;2024-03-06T13:39:23;7.07;;;4.03;;
32196;SDS011;18697;42.770;23.400;2024-03-06T13:41:49;9.93;;;5.75;;
32196;SDS011;18697;42.770;23.400;2024-03-06T13:44:14;5.22;;;4.10;;
32196;SDS011;18697;42.770;23.400;2024-03-06T13:46:40;8.40;;;4.10;;
32196;SDS011;18697;42.770;23.400;2024-03-06T13:49:05;6.05;;;3.80;;
32196;SDS011;18697;42.770;23.400;2024-03-06T13:51:30;4.88;;;3.80;;
32196;SDS011;18697;42.770;23.400;2024-03-06T13:53:56;6.40;;;5.07;;
32196;SDS011;18697;42.770;23.400;2024-03-06T13:56:21;5.97;;;4.00;;
32196;SDS011;18697;42.770;23.400;2024-03-06T13:58:47;13.88;;;9.98;;
32196;SDS011;18697;42.770;23.400;2024-03-06T14:03:37;5.82;;;3.88;;
32196;SDS011;18697;42.770;23.400;2024-03-06T14:06:04;5.55;;;3.95;;
32196;SDS011;18697;42.770;23.400;2024-03-06T14:08:32;7.35;;;5.60;;
32196;SDS011;18697;42.770;23.400;2024-03-06T14:10:57;13.40;;;7.40;;
32196;SDS011;18697;42.770;23.400;2024-03-06T14:13:23;5.55;;;5.03;;
32196;SDS011;18697;42.770;23.400;2024-03-06T14:15:48;9.48;;;4.28;;
32196;SDS011;18697;42.770;23.400;2024-03-06T14:18:14;6.25;;;4.78;;
32196;SDS011;18697;42.770;23.400;2024-03-06T14:20:39;7.38;;;4.93;;
32196;SDS011;18697;42.770;23.400;2024-03-06T14:23:05;12.18;;;9.38;;
32196;SDS011;18697;42.770;23.400;2024-03-06T14:25:30;6.45;;;5.13;;
32196;SDS011;18697;42.770;23.400;2024-03-06T14:28:00;8.45;;;4.28;;
32196;SDS011;18697;42.770;23.400;2024-03-06T14:30:26;6.82;;;4.80;;
32196;SDS011;18697;42.770;23.400;2024-03-06T14:32:52;9.15;;;4.55;;
32196;SDS011;18697;42.770;23.400;2024-03-06T14:35:17;22.98;;;12.25;;
32196;SDS011;18697;42.770;23.400;2024-03-06T14:37:43;17.02;;;11.15;;